sensor_id;sensor_type;location;lat;lon;timestamp;P1;durP1;ratioP1;P2;durP2;ratioP2
63965;SDS011;50151;52.030;5.350;2023-04-24T00:01:01;0.40;;;0.40;;
63965;SDS011;50151;52.030;5.350;2023-04-24T00:03:28;1.10;;;0.85;;
63965;SDS011;50151;52.030;5.350;2023-04-24T00:05:55;0.73;;;0.73;;
63965;SDS011;50151;52.030;5.350;2023-04-24T00:08:22;2.30;;;1.25;;
63965;SDS011;50151;52.030;5.350;2023-04-24T00:10:49;1.48;;;0.82;;
63965;SDS011;50151;52.030;5.350;2023-04-24T00:13:18;1.63;;;0.70;;
63965;SDS011;50151;52.030;5.350;2023-04-24T00:15:44;1.35;;;0.75;;
63965;SDS011;50151;52.030;5.350;2023-04-24T00:18:11;1.77;;;0.65;;
63965;SDS011;50151;52.030;5.350;2023-04-24T00:20:38;1.42;;;0.80;;
63965;SDS011;50151;52.030;5.350;2023-04-24T00:23:05;2.22;;;0.93;;
63965;SDS011;50151;52.030;5.350;2023-04-24T00:25:32;1.55;;;0.90;;
63965;SDS011;50151;52.030;5.350;2023-04-24T00:27:59;2.67;;;0.98;;
63965;SDS011;50151;52.030;5.350;2023-04-24T00:30:26;3.53;;;0.73;;
63965;SDS011;50151;52.030;5.350;2023-04-24T00:32:53;1.17;;;0.70;;
63965;SDS011;50151;52.030;5.350;2023-04-24T00:35:20;1.98;;;1.05;;
63965;SDS011;50151;52.030;5.350;2023-04-24T00:37:47;1.30;;;0.82;;
63965;SDS011;50151;52.030;5.350;2023-04-24T00:40:13;1.80;;;0.75;;
63965;SDS011;50151;52.030;5.350;2023-04-24T00:42:40;0.98;;;0.85;;
63965;SDS011;50151;52.030;5.350;2023-04-24T00:45:07;3.03;;;1.15;;
63965;SDS011;50151;52.030;5.350;2023-04-24T00:47:34;0.82;;;0.82;;
63965;SDS011;50151;52.030;5.350;2023-04-24T00:50:05;2.75;;;1.05;;
63965;SDS011;50151;52.030;5.350;2023-04-24T00:52:32;2.28;;;0.82;;
63965;SDS011;50151;52.030;5.350;2023-04-24T00:54:59;3.60;;;1.52;;
63965;SDS011;50151;52.030;5.350;2023-04-24T00:57:26;2.25;;;1.10;;
63965;SDS011;50151;52.030;5.350;2023-04-24T00:59:53;4.80;;;1.23;;
63965;SDS011;50151;52.030;5.350;2023-04-24T01:02:20;1.83;;;1.30;;
63965;SDS011;50151;52.030;5.350;2023-04-24T01:04:49;1.40;;;1.27;;
63965;SDS011;50151;52.030;5.350;2023-04-24T01:07:19;2.50;;;0.98;;
63965;SDS011;50151;52.030;5.350;2023-04-24T01:09:47;3.60;;;1.52;;
63965;SDS011;50151;52.030;5.350;2023-04-24T01:12:15;2.10;;;1.42;;
63965;SDS011;50151;52.030;5.350;2023-04-24T01:14:42;3.85;;;1.63;;
63965;SDS011;50151;52.030;5.350;2023-04-24T01:17:09;2.50;;;1.48;;
63965;SDS011;50151;52.030;5.350;2023-04-24T01:19:35;1.60;;;1.50;;
63965;SDS011;50151;52.030;5.350;2023-04-24T01:22:03;2.22;;;1.25;;
63965;SDS011;50151;52.030;5.350;2023-04-24T01:24:36;1.52;;;1.38;;
63965;SDS011;50151;52.030;5.350;2023-04-24T01:27:03;1.48;;;1.20;;
63965;SDS011;50151;52.030;5.350;2023-04-24T01:29:30;2.67;;;1.67;;
63965;SDS011;50151;52.030;5.350;2023-04-24T01:31:57;1.20;;;1.10;;
63965;SDS011;50151;52.030;5.350;2023-04-24T01:34:24;1.35;;;1.08;;
63965;SDS011;50151;52.030;5.350;2023-04-24T01:36:51;2.17;;;1.17;;
63965;SDS011;50151;52.030;5.350;2023-04-24T01:39:18;2.28;;;1.35;;
63965;SDS011;50151;52.030;5.350;2023-04-24T01:41:46;1.90;;;1.23;;
63965;SDS011;50151;52.030;5.350;2023-04-24T01:44:13;2.83;;;1.63;;
63965;SDS011;50151;52.030;5.350;2023-04-24T01:46:40;1.95;;;1.45;;
63965;SDS011;50151;52.030;5.350;2023-04-24T01:49:07;2.55;;;1.58;;
63965;SDS011;50151;52.030;5.350;2023-04-24T01:51:34;1.70;;;1.60;;
63965;SDS011;50151;52.030;5.350;2023-04-24T01:54:01;4.38;;;1.60;;
63965;SDS011;50151;52.030;5.350;2023-04-24T01:56:30;1.60;;;1.33;;
63965;SDS011;50151;52.030;5.350;2023-04-24T01:59:00;1.90;;;1.50;;
63965;SDS011;50151;52.030;5.350;2023-04-24T02:01:32;1.95;;;1.40;;
63965;SDS011;50151;52.030;5.350;2023-04-24T02:04:06;1.57;;;1.23;;
63965;SDS011;50151;52.030;5.350;2023-04-24T02:06:34;1.90;;;1.33;;
63965;SDS011;50151;52.030;5.350;2023-04-24T02:09:01;3.78;;;1.60;;
63965;SDS011;50151;52.030;5.350;2023-04-24T02:11:29;1.77;;;1.15;;
63965;SDS011;50151;52.030;5.350;2023-04-24T02:13:55;4.93;;;1.65;;
63965;SDS011;50151;52.030;5.350;2023-04-24T02:16:22;2.45;;;1.90;;
63965;SDS011;50151;52.030;5.350;2023-04-24T02:18:49;2.95;;;1.60;;
63965;SDS011;50151;52.030;5.350;2023-04-24T02:21:16;1.40;;;1.30;;
63965;SDS011;50151;52.030;5.350;2023-04-24T02:23:42;1.20;;;1.05;;
63965;SDS011;50151;52.030;5.350;2023-04-24T02:26:09;2.15;;;1.13;;
63965;SDS011;50151;52.030;5.350;2023-04-24T02:28:36;1.30;;;1.00;;
63965;SDS011;50151;52.030;5.350;2023-04-24T02:31:02;1.25;;;1.15;;
63965;SDS011;50151;52.030;5.350;2023-04-24T02:33:29;2.08;;;1.40;;
63965;SDS011;50151;52.030;5.350;2023-04-24T02:35:56;1.52;;;1.10;;
63965;SDS011;50151;52.030;5.350;2023-04-24T02:38:22;2.08;;;1.52;;
63965;SDS011;50151;52.030;5.350;2023-04-24T02:40:49;2.97;;;1.83;;
63965;SDS011;50151;52.030;5.350;2023-04-24T02:43:16;2.40;;;1.98;;
63965;SDS011;50151;52.030;5.350;2023-04-24T02:45:42;4.18;;;2.03;;
63965;SDS011;50151;52.030;5.350;2023-04-24T02:48:09;2.42;;;1.77;;
63965;SDS011;50151;52.030;5.350;2023-04-24T02:50:36;3.65;;;2.22;;
63965;SDS011;50151;52.030;5.350;2023-04-24T02:53:03;2.78;;;2.30;;
63965;SDS011;50151;52.030;5.350;2023-04-24T02:55:30;3.88;;;2.70;;
63965;SDS011;50151;52.030;5.350;2023-04-24T02:57:56;4.15;;;2.70;;
63965;SDS011;50151;52.030;5.350;2023-04-24T03:00:23;3.30;;;2.60;;
63965;SDS011;50151;52.030;5.350;2023-04-24T03:02:50;3.78;;;2.28;;
63965;SDS011;50151;52.030;5.350;2023-04-24T03:05:17;1.52;;;1.42;;
63965;SDS011;50151;52.030;5.350;2023-04-24T03:07:43;3.75;;;2.00;;
63965;SDS011;50151;52.030;5.350;2023-04-24T03:10:11;2.58;;;1.80;;
63965;SDS011;50151;52.030;5.350;2023-04-24T03:12:38;3.40;;;2.25;;
63965;SDS011;50151;52.030;5.350;2023-04-24T03:15:05;2.20;;;1.70;;
63965;SDS011;50151;52.030;5.350;2023-04-24T03:17:32;2.47;;;1.45;;
63965;SDS011;50151;52.030;5.350;2023-04-24T03:19:59;1.90;;;1.33;;
63965;SDS011;50151;52.030;5.350;2023-04-24T03:22:25;2.95;;;1.73;;
63965;SDS011;50151;52.030;5.350;2023-04-24T03:24:52;0.50;;;0.47;;
63965;SDS011;50151;52.030;5.350;2023-04-24T03:27:18;1.92;;;1.10;;
63965;SDS011;50151;52.030;5.350;2023-04-24T03:29:45;1.38;;;0.90;;
63965;SDS011;50151;52.030;5.350;2023-04-24T03:32:12;2.05;;;1.02;;
63965;SDS011;50151;52.030;5.350;2023-04-24T03:34:38;0.73;;;0.60;;
63965;SDS011;50151;52.030;5.350;2023-04-24T03:37:05;4.88;;;0.82;;
63965;SDS011;50151;52.030;5.350;2023-04-24T03:39:32;1.02;;;0.52;;
63965;SDS011;50151;52.030;5.350;2023-04-24T03:41:58;2.00;;;0.70;;
63965;SDS011;50151;52.030;5.350;2023-04-24T03:44:26;1.67;;;0.70;;
63965;SDS011;50151;52.030;5.350;2023-04-24T03:46:53;1.48;;;1.02;;
63965;SDS011;50151;52.030;5.350;2023-04-24T03:49:19;1.15;;;0.70;;
63965;SDS011;50151;52.030;5.350;2023-04-24T03:51:46;2.33;;;1.00;;
63965;SDS011;50151;52.030;5.350;2023-04-24T03:54:13;1.63;;;1.10;;
63965;SDS011;50151;52.030;5.350;2023-04-24T03:56:40;2.28;;;1.10;;
63965;SDS011;50151;52.030;5.350;2023-04-24T03:59:06;2.20;;;1.70;;
63965;SDS011;50151;52.030;5.350;2023-04-24T04:01:33;1.92;;;1.70;;
63965;SDS011;50151;52.030;5.350;2023-04-24T04:04:03;2.15;;;1.60;;
63965;SDS011;50151;52.030;5.350;2023-04-24T04:06:30;3.45;;;1.70;;
63965;SDS011;50151;52.030;5.350;2023-04-24T04:08:57;1.90;;;1.58;;
63965;SDS011;50151;52.030;5.350;2023-04-24T04:11:25;3.42;;;1.80;;
63965;SDS011;50151;52.030;5.350;2023-04-24T04:13:51;2.75;;;1.88;;
63965;SDS011;50151;52.030;5.350;2023-04-24T04:16:18;8.23;;;1.83;;
63965;SDS011;50151;52.030;5.350;2023-04-24T04:18:45;1.83;;;1.55;;
63965;SDS011;50151;52.030;5.350;2023-04-24T04:21:12;2.25;;;1.85;;
63965;SDS011;50151;52.030;5.350;2023-04-24T04:23:38;2.05;;;1.65;;
63965;SDS011;50151;52.030;5.350;2023-04-24T04:26:06;1.80;;;1.70;;
63965;SDS011;50151;52.030;5.350;2023-04-24T04:28:34;2.85;;;1.90;;
63965;SDS011;50151;52.030;5.350;2023-04-24T04:31:00;2.38;;;1.60;;
63965;SDS011;50151;52.030;5.350;2023-04-24T04:33:28;2.17;;;1.85;;
63965;SDS011;50151;52.030;5.350;2023-04-24T04:35:54;4.15;;;1.90;;
63965;SDS011;50151;52.030;5.350;2023-04-24T04:38:24;2.50;;;2.08;;
63965;SDS011;50151;52.030;5.350;2023-04-24T04:40:52;3.17;;;2.30;;
63965;SDS011;50151;52.030;5.350;2023-04-24T04:43:19;2.70;;;2.25;;
63965;SDS011;50151;52.030;5.350;2023-04-24T04:45:45;3.45;;;2.20;;
63965;SDS011;50151;52.030;5.350;2023-04-24T04:48:14;1.83;;;1.55;;
63965;SDS011;50151;52.030;5.350;2023-04-24T04:50:43;3.05;;;2.00;;
63965;SDS011;50151;52.030;5.350;2023-04-24T04:53:10;3.08;;;2.00;;
63965;SDS011;50151;52.030;5.350;2023-04-24T04:55:37;3.42;;;2.10;;
63965;SDS011;50151;52.030;5.350;2023-04-24T04:58:04;3.42;;;1.95;;
63965;SDS011;50151;52.030;5.350;2023-04-24T05:00:31;1.92;;;1.65;;
63965;SDS011;50151;52.030;5.350;2023-04-24T05:03:01;2.55;;;1.95;;
63965;SDS011;50151;52.030;5.350;2023-04-24T05:05:46;5.03;;;2.28;;
63965;SDS011;50151;52.030;5.350;2023-04-24T05:08:12;2.45;;;1.70;;
63965;SDS011;50151;52.030;5.350;2023-04-24T05:10:52;2.47;;;1.90;;
63965;SDS011;50151;52.030;5.350;2023-04-24T05:13:18;2.63;;;1.83;;
63965;SDS011;50151;52.030;5.350;2023-04-24T05:15:57;2.33;;;2.00;;
63965;SDS011;50151;52.030;5.350;2023-04-24T05:18:24;2.60;;;1.95;;
63965;SDS011;50151;52.030;5.350;2023-04-24T05:20:50;2.33;;;2.00;;
63965;SDS011;50151;52.030;5.350;2023-04-24T05:23:17;2.55;;;1.90;;
63965;SDS011;50151;52.030;5.350;2023-04-24T05:25:44;2.55;;;1.73;;
63965;SDS011;50151;52.030;5.350;2023-04-24T05:28:12;3.35;;;1.90;;
63965;SDS011;50151;52.030;5.350;2023-04-24T05:30:38;2.72;;;1.83;;
63965;SDS011;50151;52.030;5.350;2023-04-24T05:33:05;3.45;;;1.58;;
63965;SDS011;50151;52.030;5.350;2023-04-24T05:35:32;3.58;;;1.77;;
63965;SDS011;50151;52.030;5.350;2023-04-24T05:37:59;3.00;;;1.85;;
63965;SDS011;50151;52.030;5.350;2023-04-24T05:40:25;3.03;;;1.48;;
63965;SDS011;50151;52.030;5.350;2023-04-24T05:42:52;3.05;;;1.75;;
63965;SDS011;50151;52.030;5.350;2023-04-24T05:45:18;3.13;;;1.60;;
63965;SDS011;50151;52.030;5.350;2023-04-24T05:47:45;3.08;;;1.60;;
63965;SDS011;50151;52.030;5.350;2023-04-24T05:50:12;2.85;;;2.05;;
63965;SDS011;50151;52.030;5.350;2023-04-24T05:52:39;2.78;;;2.10;;
63965;SDS011;50151;52.030;5.350;2023-04-24T05:55:06;2.47;;;2.13;;
63965;SDS011;50151;52.030;5.350;2023-04-24T05:57:33;3.90;;;2.10;;
63965;SDS011;50151;52.030;5.350;2023-04-24T06:00:00;2.50;;;1.65;;
63965;SDS011;50151;52.030;5.350;2023-04-24T06:02:27;2.50;;;1.42;;
63965;SDS011;50151;52.030;5.350;2023-04-24T06:04:55;1.48;;;1.20;;
63965;SDS011;50151;52.030;5.350;2023-04-24T06:07:23;2.58;;;1.20;;
63965;SDS011;50151;52.030;5.350;2023-04-24T06:09:52;5.07;;;1.08;;
63965;SDS011;50151;52.030;5.350;2023-04-24T06:12:18;3.10;;;0.90;;
63965;SDS011;50151;52.030;5.350;2023-04-24T06:14:45;1.52;;;0.52;;
63965;SDS011;50151;52.030;5.350;2023-04-24T06:17:12;1.88;;;0.90;;
63965;SDS011;50151;52.030;5.350;2023-04-24T06:19:38;2.00;;;0.75;;
63965;SDS011;50151;52.030;5.350;2023-04-24T06:22:05;0.77;;;0.60;;
63965;SDS011;50151;52.030;5.350;2023-04-24T06:24:35;2.20;;;0.98;;
63965;SDS011;50151;52.030;5.350;2023-04-24T06:27:02;2.00;;;0.70;;
63965;SDS011;50151;52.030;5.350;2023-04-24T06:29:28;1.27;;;0.73;;
63965;SDS011;50151;52.030;5.350;2023-04-24T06:31:55;0.63;;;0.52;;
63965;SDS011;50151;52.030;5.350;2023-04-24T06:34:22;0.60;;;0.60;;
63965;SDS011;50151;52.030;5.350;2023-04-24T06:36:48;0.75;;;0.70;;
63965;SDS011;50151;52.030;5.350;2023-04-24T06:39:15;2.15;;;0.75;;
63965;SDS011;50151;52.030;5.350;2023-04-24T06:41:42;2.38;;;0.82;;
63965;SDS011;50151;52.030;5.350;2023-04-24T06:44:08;2.40;;;0.90;;
63965;SDS011;50151;52.030;5.350;2023-04-24T06:46:35;1.45;;;0.90;;
63965;SDS011;50151;52.030;5.350;2023-04-24T06:49:04;2.17;;;1.48;;
63965;SDS011;50151;52.030;5.350;2023-04-24T06:51:30;4.93;;;2.60;;
63965;SDS011;50151;52.030;5.350;2023-04-24T06:53:59;6.97;;;3.00;;
63965;SDS011;50151;52.030;5.350;2023-04-24T06:56:25;7.93;;;3.50;;
63965;SDS011;50151;52.030;5.350;2023-04-24T06:58:52;4.88;;;3.40;;
63965;SDS011;50151;52.030;5.350;2023-04-24T07:01:19;5.93;;;3.15;;
63965;SDS011;50151;52.030;5.350;2023-04-24T07:03:46;3.78;;;2.25;;
63965;SDS011;50151;52.030;5.350;2023-04-24T07:06:13;4.15;;;2.33;;
63965;SDS011;50151;52.030;5.350;2023-04-24T07:08:40;6.60;;;4.00;;
63965;SDS011;50151;52.030;5.350;2023-04-24T07:11:08;8.85;;;4.50;;
63965;SDS011;50151;52.030;5.350;2023-04-24T07:13:34;7.70;;;3.90;;
63965;SDS011;50151;52.030;5.350;2023-04-24T07:16:01;7.47;;;4.85;;
63965;SDS011;50151;52.030;5.350;2023-04-24T07:18:28;9.02;;;4.65;;
63965;SDS011;50151;52.030;5.350;2023-04-24T07:20:55;7.32;;;3.95;;
63965;SDS011;50151;52.030;5.350;2023-04-24T07:23:22;5.22;;;1.95;;
63965;SDS011;50151;52.030;5.350;2023-04-24T07:25:49;10.70;;;4.78;;
63965;SDS011;50151;52.030;5.350;2023-04-24T07:28:16;6.75;;;3.50;;
63965;SDS011;50151;52.030;5.350;2023-04-24T07:30:43;11.98;;;4.40;;
63965;SDS011;50151;52.030;5.350;2023-04-24T07:33:10;8.38;;;3.28;;
63965;SDS011;50151;52.030;5.350;2023-04-24T07:35:39;9.35;;;4.13;;
63965;SDS011;50151;52.030;5.350;2023-04-24T07:38:06;10.15;;;4.60;;
63965;SDS011;50151;52.030;5.350;2023-04-24T07:40:32;10.60;;;5.47;;
63965;SDS011;50151;52.030;5.350;2023-04-24T07:42:59;9.82;;;4.63;;
63965;SDS011;50151;52.030;5.350;2023-04-24T07:45:26;10.70;;;4.30;;
63965;SDS011;50151;52.030;5.350;2023-04-24T07:47:54;7.00;;;4.22;;
63965;SDS011;50151;52.030;5.350;2023-04-24T07:50:20;12.57;;;5.05;;
63965;SDS011;50151;52.030;5.350;2023-04-24T07:52:48;9.48;;;3.65;;
63965;SDS011;50151;52.030;5.350;2023-04-24T07:55:14;16.35;;;5.80;;
63965;SDS011;50151;52.030;5.350;2023-04-24T07:57:41;14.32;;;5.43;;
63965;SDS011;50151;52.030;5.350;2023-04-24T08:00:08;12.20;;;3.70;;
63965;SDS011;50151;52.030;5.350;2023-04-24T08:02:36;12.80;;;4.45;;
63965;SDS011;50151;52.030;5.350;2023-04-24T08:05:02;12.23;;;4.18;;
63965;SDS011;50151;52.030;5.350;2023-04-24T08:07:30;13.60;;;3.97;;
63965;SDS011;50151;52.030;5.350;2023-04-24T08:09:57;7.97;;;2.60;;
63965;SDS011;50151;52.030;5.350;2023-04-24T08:12:25;10.18;;;3.70;;
63965;SDS011;50151;52.030;5.350;2023-04-24T08:14:52;14.65;;;3.35;;
63965;SDS011;50151;52.030;5.350;2023-04-24T08:17:18;9.13;;;2.30;;
63965;SDS011;50151;52.030;5.350;2023-04-24T08:19:45;19.20;;;3.45;;
63965;SDS011;50151;52.030;5.350;2023-04-24T08:22:14;13.50;;;2.83;;
63965;SDS011;50151;52.030;5.350;2023-04-24T08:24:41;18.98;;;3.30;;
63965;SDS011;50151;52.030;5.350;2023-04-24T08:27:08;13.60;;;3.10;;
63965;SDS011;50151;52.030;5.350;2023-04-24T08:29:36;4.40;;;1.50;;
63965;SDS011;50151;52.030;5.350;2023-04-24T08:32:02;8.82;;;2.42;;
63965;SDS011;50151;52.030;5.350;2023-04-24T08:34:29;6.40;;;1.63;;
63965;SDS011;50151;52.030;5.350;2023-04-24T08:36:56;10.00;;;2.35;;
63965;SDS011;50151;52.030;5.350;2023-04-24T08:39:22;11.52;;;2.47;;
63965;SDS011;50151;52.030;5.350;2023-04-24T08:41:49;12.75;;;2.20;;
63965;SDS011;50151;52.030;5.350;2023-04-24T08:44:16;10.02;;;2.08;;
63965;SDS011;50151;52.030;5.350;2023-04-24T08:46:45;15.00;;;2.25;;
63965;SDS011;50151;52.030;5.350;2023-04-24T08:49:15;8.07;;;2.08;;
63965;SDS011;50151;52.030;5.350;2023-04-24T08:51:44;8.75;;;2.03;;
63965;SDS011;50151;52.030;5.350;2023-04-24T08:54:13;11.38;;;2.17;;
63965;SDS011;50151;52.030;5.350;2023-04-24T08:56:40;9.05;;;2.15;;
63965;SDS011;50151;52.030;5.350;2023-04-24T08:59:10;6.95;;;1.40;;
63965;SDS011;50151;52.030;5.350;2023-04-24T09:01:38;5.45;;;1.73;;
63965;SDS011;50151;52.030;5.350;2023-04-24T09:04:08;10.63;;;2.28;;
63965;SDS011;50151;52.030;5.350;2023-04-24T09:06:39;6.28;;;1.77;;
63965;SDS011;50151;52.030;5.350;2023-04-24T09:09:06;6.63;;;1.60;;
63965;SDS011;50151;52.030;5.350;2023-04-24T09:11:34;4.05;;;1.45;;
63965;SDS011;50151;52.030;5.350;2023-04-24T09:14:01;4.63;;;1.05;;
63965;SDS011;50151;52.030;5.350;2023-04-24T09:16:28;4.80;;;1.73;;
63965;SDS011;50151;52.030;5.350;2023-04-24T09:18:55;17.85;;;2.10;;
63965;SDS011;50151;52.030;5.350;2023-04-24T09:21:22;18.58;;;1.60;;
63965;SDS011;50151;52.030;5.350;2023-04-24T09:24:00;5.75;;;1.27;;
63965;SDS011;50151;52.030;5.350;2023-04-24T09:26:31;8.63;;;2.13;;
63965;SDS011;50151;52.030;5.350;2023-04-24T09:29:01;6.20;;;1.58;;
63965;SDS011;50151;52.030;5.350;2023-04-24T09:31:29;10.65;;;1.88;;
63965;SDS011;50151;52.030;5.350;2023-04-24T09:34:00;9.23;;;2.00;;
63965;SDS011;50151;52.030;5.350;2023-04-24T09:36:33;7.68;;;1.58;;
63965;SDS011;50151;52.030;5.350;2023-04-24T09:39:04;11.98;;;2.08;;
63965;SDS011;50151;52.030;5.350;2023-04-24T09:41:34;10.70;;;1.73;;
63965;SDS011;50151;52.030;5.350;2023-04-24T09:44:10;10.10;;;1.65;;
63965;SDS011;50151;52.030;5.350;2023-04-24T09:46:38;9.43;;;2.33;;
63965;SDS011;50151;52.030;5.350;2023-04-24T09:49:09;6.22;;;1.63;;
63965;SDS011;50151;52.030;5.350;2023-04-24T09:51:41;7.43;;;1.75;;
63965;SDS011;50151;52.030;5.350;2023-04-24T09:54:16;3.30;;;1.23;;
63965;SDS011;50151;52.030;5.350;2023-04-24T09:56:51;5.55;;;1.27;;
63965;SDS011;50151;52.030;5.350;2023-04-24T09:59:18;5.40;;;1.48;;
63965;SDS011;50151;52.030;5.350;2023-04-24T10:01:46;6.97;;;2.03;;
63965;SDS011;50151;52.030;5.350;2023-04-24T10:06:48;4.90;;;1.35;;
63965;SDS011;50151;52.030;5.350;2023-04-24T10:09:26;8.77;;;1.48;;
63965;SDS011;50151;52.030;5.350;2023-04-24T10:11:53;5.00;;;1.15;;
63965;SDS011;50151;52.030;5.350;2023-04-24T10:14:23;3.97;;;1.17;;
63965;SDS011;50151;52.030;5.350;2023-04-24T10:16:55;5.72;;;1.40;;
63965;SDS011;50151;52.030;5.350;2023-04-24T10:19:25;3.45;;;1.20;;
63965;SDS011;50151;52.030;5.350;2023-04-24T10:21:52;7.20;;;1.30;;
63965;SDS011;50151;52.030;5.350;2023-04-24T10:24:21;5.70;;;1.52;;
63965;SDS011;50151;52.030;5.350;2023-04-24T10:26:48;5.50;;;1.33;;
63965;SDS011;50151;52.030;5.350;2023-04-24T10:29:16;5.00;;;1.13;;
63965;SDS011;50151;52.030;5.350;2023-04-24T10:31:44;3.92;;;1.08;;
63965;SDS011;50151;52.030;5.350;2023-04-24T10:34:15;1.77;;;0.50;;
63965;SDS011;50151;52.030;5.350;2023-04-24T10:36:45;6.20;;;0.80;;
63965;SDS011;50151;52.030;5.350;2023-04-24T10:39:15;6.95;;;1.02;;
63965;SDS011;50151;52.030;5.350;2023-04-24T10:41:43;5.25;;;1.05;;
63965;SDS011;50151;52.030;5.350;2023-04-24T10:44:12;5.88;;;0.60;;
63965;SDS011;50151;52.030;5.350;2023-04-24T10:46:44;10.23;;;0.80;;
63965;SDS011;50151;52.030;5.350;2023-04-24T10:49:14;2.42;;;0.77;;
63965;SDS011;50151;52.030;5.350;2023-04-24T10:59:49;3.47;;;0.50;;
63965;SDS011;50151;52.030;5.350;2023-04-24T11:02:17;5.05;;;0.60;;
63965;SDS011;50151;52.030;5.350;2023-04-24T11:04:45;4.15;;;0.80;;
63965;SDS011;50151;52.030;5.350;2023-04-24T11:07:12;3.53;;;0.80;;
63965;SDS011;50151;52.030;5.350;2023-04-24T11:09:39;3.28;;;0.77;;
63965;SDS011;50151;52.030;5.350;2023-04-24T11:12:10;2.65;;;0.70;;
63965;SDS011;50151;52.030;5.350;2023-04-24T11:17:33;2.00;;;0.90;;
63965;SDS011;50151;52.030;5.350;2023-04-24T11:20:04;2.05;;;0.70;;
63965;SDS011;50151;52.030;5.350;2023-04-24T11:22:52;2.95;;;0.68;;
63965;SDS011;50151;52.030;5.350;2023-04-24T11:25:21;4.18;;;0.65;;
63965;SDS011;50151;52.030;5.350;2023-04-24T11:28:02;1.83;;;0.65;;
63965;SDS011;50151;52.030;5.350;2023-04-24T11:30:30;3.45;;;0.82;;
63965;SDS011;50151;52.030;5.350;2023-04-24T11:33:01;3.10;;;0.60;;
63965;SDS011;50151;52.030;5.350;2023-04-24T11:35:29;4.50;;;0.90;;
63965;SDS011;50151;52.030;5.350;2023-04-24T11:38:02;2.78;;;0.80;;
63965;SDS011;50151;52.030;5.350;2023-04-24T11:40:49;7.47;;;1.30;;
63965;SDS011;50151;52.030;5.350;2023-04-24T11:43:16;6.30;;;1.05;;
63965;SDS011;50151;52.030;5.350;2023-04-24T11:45:47;7.00;;;1.15;;
63965;SDS011;50151;52.030;5.350;2023-04-24T11:48:18;5.32;;;0.77;;
63965;SDS011;50151;52.030;5.350;2023-04-24T11:50:48;1.23;;;0.43;;
63965;SDS011;50151;52.030;5.350;2023-04-24T11:53:18;3.65;;;0.47;;
63965;SDS011;50151;52.030;5.350;2023-04-24T11:55:46;4.80;;;0.63;;
63965;SDS011;50151;52.030;5.350;2023-04-24T11:58:14;1.52;;;0.43;;
63965;SDS011;50151;52.030;5.350;2023-04-24T12:00:41;0.88;;;0.35;;
63965;SDS011;50151;52.030;5.350;2023-04-24T12:03:11;2.38;;;0.47;;
63965;SDS011;50151;52.030;5.350;2023-04-24T12:05:39;2.85;;;0.55;;
63965;SDS011;50151;52.030;5.350;2023-04-24T12:08:07;1.90;;;0.60;;
63965;SDS011;50151;52.030;5.350;2023-04-24T12:10:34;5.43;;;0.70;;
63965;SDS011;50151;52.030;5.350;2023-04-24T12:13:02;1.15;;;0.43;;
63965;SDS011;50151;52.030;5.350;2023-04-24T12:15:29;4.10;;;0.60;;
63965;SDS011;50151;52.030;5.350;2023-04-24T12:17:56;2.13;;;0.82;;
63965;SDS011;50151;52.030;5.350;2023-04-24T12:20:27;2.15;;;0.40;;
63965;SDS011;50151;52.030;5.350;2023-04-24T12:22:57;5.55;;;0.80;;
63965;SDS011;50151;52.030;5.350;2023-04-24T12:25:25;1.38;;;0.50;;
63965;SDS011;50151;52.030;5.350;2023-04-24T12:27:55;3.78;;;1.00;;
63965;SDS011;50151;52.030;5.350;2023-04-24T12:30:40;6.90;;;1.10;;
63965;SDS011;50151;52.030;5.350;2023-04-24T12:33:20;2.33;;;0.77;;
63965;SDS011;50151;52.030;5.350;2023-04-24T12:35:48;3.50;;;1.02;;
63965;SDS011;50151;52.030;5.350;2023-04-24T12:38:22;7.32;;;1.20;;
63965;SDS011;50151;52.030;5.350;2023-04-24T12:41:04;6.85;;;0.93;;
63965;SDS011;50151;52.030;5.350;2023-04-24T12:43:32;4.55;;;1.10;;
63965;SDS011;50151;52.030;5.350;2023-04-24T12:45:59;8.32;;;1.50;;
63965;SDS011;50151;52.030;5.350;2023-04-24T12:48:26;9.95;;;1.50;;
63965;SDS011;50151;52.030;5.350;2023-04-24T12:50:54;7.07;;;1.33;;
63965;SDS011;50151;52.030;5.350;2023-04-24T12:53:22;8.35;;;1.10;;
63965;SDS011;50151;52.030;5.350;2023-04-24T12:55:49;5.43;;;1.33;;
63965;SDS011;50151;52.030;5.350;2023-04-24T12:58:19;6.82;;;1.50;;
63965;SDS011;50151;52.030;5.350;2023-04-24T13:00:46;6.35;;;1.30;;
63965;SDS011;50151;52.030;5.350;2023-04-24T13:03:14;7.50;;;1.25;;
63965;SDS011;50151;52.030;5.350;2023-04-24T13:05:41;7.70;;;1.50;;
63965;SDS011;50151;52.030;5.350;2023-04-24T13:08:09;8.60;;;1.50;;
63965;SDS011;50151;52.030;5.350;2023-04-24T13:10:36;4.25;;;1.20;;
63965;SDS011;50151;52.030;5.350;2023-04-24T13:13:03;8.48;;;1.60;;
63965;SDS011;50151;52.030;5.350;2023-04-24T13:15:30;8.55;;;1.70;;
63965;SDS011;50151;52.030;5.350;2023-04-24T13:17:56;1.83;;;0.77;;
63965;SDS011;50151;52.030;5.350;2023-04-24T13:20:23;6.68;;;1.35;;
63965;SDS011;50151;52.030;5.350;2023-04-24T13:22:50;6.53;;;1.40;;
63965;SDS011;50151;52.030;5.350;2023-04-24T13:25:16;3.95;;;0.82;;
63965;SDS011;50151;52.030;5.350;2023-04-24T13:27:44;5.72;;;1.92;;
63965;SDS011;50151;52.030;5.350;2023-04-24T13:30:10;5.53;;;1.02;;
63965;SDS011;50151;52.030;5.350;2023-04-24T13:32:37;5.97;;;1.08;;
63965;SDS011;50151;52.030;5.350;2023-04-24T13:35:04;9.77;;;1.85;;
63965;SDS011;50151;52.030;5.350;2023-04-24T13:37:31;11.02;;;2.22;;
63965;SDS011;50151;52.030;5.350;2023-04-24T13:39:58;7.45;;;1.98;;
63965;SDS011;50151;52.030;5.350;2023-04-24T13:42:25;7.38;;;1.80;;
63965;SDS011;50151;52.030;5.350;2023-04-24T13:44:52;7.93;;;1.80;;
63965;SDS011;50151;52.030;5.350;2023-04-24T13:47:20;2.38;;;1.20;;
63965;SDS011;50151;52.030;5.350;2023-04-24T13:49:47;9.50;;;1.63;;
63965;SDS011;50151;52.030;5.350;2023-04-24T13:52:14;8.85;;;1.92;;
63965;SDS011;50151;52.030;5.350;2023-04-24T13:54:41;4.28;;;1.10;;
63965;SDS011;50151;52.030;5.350;2023-04-24T13:57:08;8.88;;;1.92;;
63965;SDS011;50151;52.030;5.350;2023-04-24T13:59:35;6.55;;;1.90;;
63965;SDS011;50151;52.030;5.350;2023-04-24T14:02:01;3.92;;;1.40;;
63965;SDS011;50151;52.030;5.350;2023-04-24T14:04:28;4.05;;;1.20;;
63965;SDS011;50151;52.030;5.350;2023-04-24T14:06:56;7.13;;;1.17;;
63965;SDS011;50151;52.030;5.350;2023-04-24T14:09:23;9.27;;;1.65;;
63965;SDS011;50151;52.030;5.350;2023-04-24T14:11:51;3.42;;;0.65;;
63965;SDS011;50151;52.030;5.350;2023-04-24T14:14:18;7.22;;;1.85;;
63965;SDS011;50151;52.030;5.350;2023-04-24T14:16:48;6.55;;;1.10;;
63965;SDS011;50151;52.030;5.350;2023-04-24T14:19:15;8.45;;;2.03;;
63965;SDS011;50151;52.030;5.350;2023-04-24T14:21:41;5.95;;;1.27;;
63965;SDS011;50151;52.030;5.350;2023-04-24T14:24:08;6.30;;;1.30;;
63965;SDS011;50151;52.030;5.350;2023-04-24T14:26:35;8.23;;;1.90;;
63965;SDS011;50151;52.030;5.350;2023-04-24T14:29:02;11.70;;;2.42;;
63965;SDS011;50151;52.030;5.350;2023-04-24T14:31:40;7.03;;;1.80;;
63965;SDS011;50151;52.030;5.350;2023-04-24T14:34:07;7.70;;;2.17;;
63965;SDS011;50151;52.030;5.350;2023-04-24T14:36:34;11.27;;;2.65;;
63965;SDS011;50151;52.030;5.350;2023-04-24T14:39:01;10.27;;;2.40;;
63965;SDS011;50151;52.030;5.350;2023-04-24T14:41:32;4.30;;;1.23;;
63965;SDS011;50151;52.030;5.350;2023-04-24T14:44:02;12.10;;;2.25;;
63965;SDS011;50151;52.030;5.350;2023-04-24T14:46:29;5.93;;;2.08;;
63965;SDS011;50151;52.030;5.350;2023-04-24T14:48:57;11.05;;;2.05;;
63965;SDS011;50151;52.030;5.350;2023-04-24T14:51:24;8.40;;;2.13;;
63965;SDS011;50151;52.030;5.350;2023-04-24T14:53:52;3.45;;;1.42;;
63965;SDS011;50151;52.030;5.350;2023-04-24T14:56:18;3.95;;;1.23;;
63965;SDS011;50151;52.030;5.350;2023-04-24T14:58:45;6.90;;;2.00;;
63965;SDS011;50151;52.030;5.350;2023-04-24T15:01:12;5.53;;;1.92;;
63965;SDS011;50151;52.030;5.350;2023-04-24T15:03:43;9.07;;;2.20;;